Latest Weather Observations for Laverton

IDV60901

Issued at 6:51 pm EST Wednesday 28 June 2017 (issued every 10 minutes, with the page automatically refreshed every 10 minutes)

About weather observations | Map of Melbourne area stations | Latest observations for Melbourne area | Other Formats
Station Details ID: 087031 Name: LAVERTON RAAF Lat: -37.86 Lon: 144.76 Height: 20.1 m
Data from the previous 72 hours. | See also: Recent months at Laverton
Date/Time
EST
Temp
°C
App
Temp
°C
Dew
Point
°C
Rel
Hum
%
Delta-T
°C
Wind Press
QNH
hPa
Press
MSL
hPa
Rain since
9am
mm
Dir  Spd
km/h
Gust
km/h
Spd
kts
Gust
kts
28/06:30pm 10.9 8.5 7.0 77 1.9 NW 9 11 5 6 1022.5 1022.5 0.0
28/06:00pm 11.8 10.1 7.5 75 2.1 NW 6 9 3 5 1022.2 1022.2 0.0
28/05:30pm 12.2 9.5 7.3 72 2.4 NW 11 13 6 7 1022.0 1022.0 0.0
28/05:00pm 12.8 10.5 7.5 70 2.6 NW 9 13 5 7 1021.9 1021.9 0.0
28/04:30pm 13.5 10.8 7.3 66 3.0 WNW 11 15 6 8 1021.9 1021.9 0.0
28/04:00pm 13.7 10.4 6.6 62 3.4 WNW 13 22 7 12 1021.8 1021.8 0.0
28/03:30pm 14.2 10.7 7.0 62 3.5 WNW 15 20 8 11 1021.9 1021.9 0.0
28/03:00pm 14.1 9.7 6.7 61 3.6 WNW 19 24 10 13 1021.9 1021.9 0.0
28/02:30pm 14.4 11.6 7.0 61 3.6 NW 11 17 6 9 1021.8 1021.8 0.0
28/02:00pm 14.9 11.8 7.2 60 3.8 NW 13 19 7 10 1021.9 1021.9 0.0
28/01:30pm 14.2 11.5 7.5 64 3.3 N 11 15 6 8 1022.2 1022.2 0.0
28/01:00pm 14.1 11.7 7.2 63 3.4 NW 9 13 5 7 1022.5 1022.5 0.0
28/12:30pm 13.9 11.6 7.4 65 3.2 N 9 15 5 8 1022.6 1022.6 0.0
28/12:00pm 13.2 10.8 7.2 67 2.9 NNE 9 13 5 7 1022.9 1022.9 0.0
28/11:30am 12.8 9.6 7.0 68 2.8 NNE 13 19 7 10 1023.4 1023.4 0.0
28/11:00am 12.1 8.9 7.0 71 2.4 NE 13 17 7 9 1023.4 1023.4 0.0
28/10:30am 10.9 8.0 6.5 74 2.1 NNE 11 15 6 8 1023.7 1023.7 0.0
28/10:00am 10.1 6.7 6.1 76 1.8 NNE 13 17 7 9 1023.7 1023.7 0.0
28/09:30am 9.7 6.7 6.1 78 1.7 NE 11 15 6 8 1023.6 1023.6 0.0
28/09:00am 9.6 6.6 6.1 79 1.6 NNE 11 15 6 8 1023.5 1023.5 0.0
28/08:30am 8.9 5.8 5.6 80 1.5 NNE 11 13 6 7 1023.4 1023.4 0.0
28/08:00am 8.7 6.0 5.4 80 1.5 NNE 9 13 5 7 1023.1 1023.1 0.0
28/07:30am 8.8 5.3 5.4 79 1.5 NNE 13 17 7 9 1022.8 1022.8 0.0
28/07:00am 8.3 5.1 5.2 81 1.4 NE 11 13 6 7 1022.7 1022.7 0.0
28/06:30am 8.5 5.3 5.3 80 1.4 NE 11 13 6 7 1022.7 1022.7 0.0
28/06:00am 8.7 5.5 5.3 79 1.5 NNE 11 13 6 7 1022.5 1022.5 0.0
28/05:30am 8.6 5.0 5.2 79 1.5 NNE 13 15 7 8 1022.5 1022.5 0.0
28/05:00am 8.5 5.3 5.1 79 1.5 NNE 11 15 6 8 1022.5 1022.5 0.0
28/04:30am 8.6 5.8 5.0 78 1.6 NNE 9 15 5 8 1022.7 1022.7 0.0
28/04:00am 8.3 5.4 4.9 79 1.5 NNE 9 11 5 6 1022.9 1022.9 0.0
28/03:30am 8.4 5.5 4.6 77 1.7 N 9 13 5 7 1023.2 1023.2 0.0
28/03:00am 8.1 4.8 4.7 79 1.5 N 11 15 6 8 1023.3 1023.3 0.0
28/02:30am 7.5 4.9 4.3 80 1.4 N 7 11 4 6 1023.0 1023.0 0.0
28/02:00am 7.8 5.2 4.2 78 1.6 N 7 11 4 6 1022.9 1022.9 0.0
28/01:30am 8.2 4.4 4.0 75 1.8 N 13 20 7 11 1022.9 1022.9 0.0
28/01:00am 8.2 4.5 4.2 76 1.7 N 13 19 7 10 1023.1 1023.1 0.0
28/12:30am 8.1 4.8 4.5 78 1.6 NNW 11 20 6 11 1023.4 1023.4 0.0
28/12:00am 7.3 4.3 4.1 80 1.4 N 9 13 5 7 1023.4 1023.4 0.0
 
Date/Time
EST
Temp
°C
App
Temp
°C
Dew
Point
°C
Rel
Hum
%
Delta-T
°C
Wind Press
QNH
hPa
Press
MSL
hPa
Rain since
9am
mm
Dir  Spd
km/h
Gust
km/h
Spd
kts
Gust
kts
27/11:30pm 7.6 3.8 3.8 77 1.6 N 13 19 7 10 1023.4 1023.4 0.0
27/11:00pm 7.9 4.5 3.9 76 1.7 N 11 17 6 9 1023.5 1023.5 0.0
27/10:30pm 8.1 4.7 3.9 75 1.8 N 11 15 6 8 1023.6 1023.6 0.0
27/10:00pm 8.6 5.7 4.6 76 1.8 NNE 9 15 5 8 1023.5 1023.5 0.0
27/09:30pm 9.0 6.2 5.0 76 1.8 N 9 13 5 7 1023.5 1023.5 0.0
27/09:00pm 9.4 6.2 5.2 75 1.9 N 11 17 6 9 1023.7 1023.7 0.0
27/08:30pm 9.4 6.3 5.4 76 1.8 NNE 11 19 6 10 1023.7 1023.7 0.0
27/08:00pm 9.7 6.2 5.3 74 2.0 N 13 17 7 9 1023.8 1023.8 0.0
27/07:30pm 9.9 6.7 5.3 73 2.1 N 11 15 6 8 1023.7 1023.7 0.0
27/07:00pm 10.0 6.5 5.4 73 2.1 N 13 19 7 10 1023.6 1023.6 0.0
27/06:30pm 10.1 6.2 5.5 73 2.1 N 15 20 8 11 1023.5 1023.5 0.0
27/06:00pm 10.2 6.4 5.8 74 2.0 N 15 22 8 12 1023.6 1023.6 0.0
27/05:30pm 10.2 6.4 5.8 74 2.0 NNE 15 22 8 12 1023.6 1023.6 0.0
27/05:00pm 10.6 7.2 5.8 72 2.2 NNE 13 19 7 10 1023.6 1023.6 0.0
27/04:30pm 11.0 7.2 6.0 71 2.3 NNE 15 20 8 11 1023.7 1023.7 0.0
27/04:00pm 11.1 7.7 6.0 71 2.4 NNE 13 19 7 10 1023.6 1023.6 0.0
27/03:30pm 11.1 7.3 6.0 71 2.4 NNE 15 20 8 11 1023.6 1023.6 0.0
27/03:00pm 10.7 7.4 6.5 75 2.0 NNE 13 19 7 10 1023.8 1023.8 0.0
27/02:30pm 11.0 7.7 6.6 74 2.1 NNE 13 19 7 10 1023.8 1023.8 0.0
27/02:00pm 11.3 8.3 5.8 69 2.5 N 11 17 6 9 1023.9 1023.9 0.0
27/01:30pm 11.6 8.8 5.3 65 2.9 N 9 13 5 7 1024.1 1024.1 0.0
27/01:00pm 11.6 8.5 5.5 66 2.8 N 11 17 6 9 1024.4 1024.4 0.0
27/12:30pm 11.5 8.4 5.6 67 2.7 N 11 17 6 9 1024.6 1024.6 0.0
27/12:00pm 11.4 8.7 5.5 67 2.7 N 9 13 5 7 1025.0 1025.0 0.0
27/11:30am 11.0 8.2 5.3 68 2.6 NNE 9 13 5 7 1025.3 1025.3 0.0
27/11:00am 10.5 7.3 5.3 70 2.4 N 11 15 6 8 1025.8 1025.8 0.0
27/10:30am 10.2 6.9 6.2 76 1.9 NNE 13 17 7 9 1025.9 1025.9 0.0
27/10:00am 9.2 6.4 6.8 85 1.1 NNE 11 13 6 7 1025.9 1025.9 0.0
27/09:30am 8.8 6.8 7.1 89 0.8 NNE 7 9 4 5 1025.7 1025.7 0.0
27/09:00am 8.2 6.4 7.0 92 0.6 NNE 6 9 3 5 1025.9 1025.9 0.0
27/08:30am 7.8 7.0 6.6 92 0.6 CALM 0 0 0 0 1025.8 1025.8 0.0
27/08:00am 7.7 5.1 6.3 91 0.6 N 9 9 5 5 1025.8 1025.8 0.0
27/07:30am 8.0 5.9 6.6 91 0.6 ESE 7 11 4 6 1025.6 1025.6 0.0
27/07:00am 8.2 6.2 7.3 94 0.4 WSW 7 7 4 4 1025.5 1025.5 0.0
27/06:30am 8.4 6.1 7.5 94 0.4 WSW 9 9 5 5 1025.4 1025.4 0.0
27/06:00am 8.2 6.8 7.4 95 0.4 WSW 4 9 2 5 1025.3 1025.3 0.0
27/05:30am 8.3 6.4 7.7 96 0.3 WSW 7 11 4 6 1025.2 1025.2 0.0
27/05:00am 7.8 5.9 7.4 97 0.2 WSW 7 11 4 6 1025.3 1025.3 0.0
27/04:30am 8.2 6.3 7.4 95 0.4 WSW 7 7 4 4 1025.4 1025.4 0.0
27/04:00am 8.3 7.7 7.4 94 0.4 CALM 0 0 0 0 1025.6 1025.6 0.0
27/03:30am 8.4 7.8 7.5 94 0.4 CALM 0 0 0 0 1025.7 1025.7 0.0
27/03:00am 8.5 6.6 7.4 93 0.5 WSW 7 9 4 5 1025.8 1025.8 0.0
27/02:30am 8.4 6.6 7.8 96 0.3 WSW 7 11 4 6 1025.9 1025.9 0.0
27/02:00am 8.3 6.1 7.7 96 0.3 WSW 9 9 5 5 1025.9 1025.9 0.0
27/01:30am 8.4 6.5 7.6 95 0.4 WSW 7 11 4 6 1025.8 1025.8 0.0
27/01:00am 8.4 6.1 7.6 95 0.4 WSW 9 9 5 5 1025.6 1025.6 0.0
27/12:30am 8.4 6.1 7.6 95 0.4 WSW 9 9 5 5 1025.7 1025.7 0.0
27/12:00am 8.5 6.2 7.4 93 0.5 WSW 9 9 5 5 1025.9 1025.9 0.0
 
Date/Time
EST
Temp
°C
App
Temp
°C
Dew
Point
°C
Rel
Hum
%
Delta-T
°C
Wind Press
QNH
hPa
Press
MSL
hPa
Rain since
9am
mm
Dir  Spd
km/h
Gust
km/h
Spd
kts
Gust
kts
26/11:30pm 8.5 7.1 7.1 91 0.7 WSW 4 11 2 6 1026.0 1026.0 0.0
26/11:00pm 8.8 6.8 7.3 90 0.7 WSW 7 9 4 5 1026.1 1026.1 0.0
26/10:30pm 8.7 6.3 7.2 90 0.7 WSW 9 11 5 6 1026.2 1026.2 0.0
26/10:00pm 8.9 6.9 7.2 89 0.8 WSW 7 9 4 5 1026.2 1026.2 0.0
26/09:30pm 9.1 7.2 7.4 89 0.8 WSW 7 9 4 5 1026.3 1026.3 0.0
26/09:00pm 9.3 7.4 7.6 89 0.8 WSW 7 9 4 5 1026.4 1026.4 0.0
26/08:30pm 9.1 7.4 7.7 91 0.7 WSW 6 9 3 5 1026.3 1026.3 0.0
26/08:00pm 9.6 9.0 7.2 85 1.1 CALM 0 0 0 0 1026.0 1026.0 0.0
26/07:30pm 10.1 9.1 7.3 83 1.3 WSW 2 7 1 4 1025.9 1025.9 0.0
26/07:00pm 10.6 10.0 7.3 80 1.6 CALM 0 0 0 0 1025.9 1025.9 0.0
26/06:30pm 10.6 8.8 7.3 80 1.6 WSW 6 7 3 4 1025.6 1025.6 0.0
26/06:00pm 11.0 10.2 6.7 75 2.0 CALM 0 0 0 0 1025.3 1025.3 0.0
26/05:30pm 11.3 9.8 6.6 73 2.2 S 4 6 2 3 1024.9 1024.9 0.0
26/05:00pm 11.7 9.7 6.4 70 2.5 SSW 6 7 3 4 1024.6 1024.6 0.0
26/04:30pm 12.0 10.0 6.9 71 2.4 SW 7 9 4 5 1024.4 1024.4 0.0
26/04:00pm 12.3 10.4 7.4 72 2.4 SW 7 11 4 6 1024.3 1024.3 0.0
26/03:30pm 12.4 10.0 6.9 69 2.6 WSW 9 11 5 6 1024.2 1024.2 0.0
26/03:00pm 12.3 9.3 6.1 66 2.9 SW 11 17 6 9 1024.1 1024.1 0.0
26/02:30pm 12.2 9.8 6.9 70 2.5 SW 9 15 5 8 1024.0 1024.0 0.0
26/02:00pm 11.9 9.3 7.8 76 2.0 SSW 11 15 6 8 1023.9 1023.9 0.0
26/01:30pm 11.4 8.5 8.1 80 1.6 SW 13 17 7 9 1024.0 1024.0 0.0
26/01:00pm 12.6 10.0 7.7 72 2.4 WSW 11 17 6 9 1024.0 1024.0 0.0
26/12:30pm 12.2 8.7 7.3 72 2.4 SW 15 20 8 11 1024.1 1024.1 0.0
26/12:00pm 12.0 8.6 7.5 74 2.2 WSW 15 24 8 13 1024.4 1024.4 0.0
26/11:30am 11.9 8.9 7.8 76 2.0 WSW 13 19 7 10 1024.4 1024.4 0.0
26/11:00am 11.5 9.0 8.4 81 1.5 W 11 17 6 9 1024.5 1024.5 0.0
26/10:30am 10.7 7.8 8.3 85 1.2 W 13 19 7 10 1024.4 1024.4 0.0
26/10:00am 9.8 6.4 7.6 86 1.0 W 15 22 8 12 1024.2 1024.2 0.0
26/09:30am 8.3 5.4 8.0 98 0.1 WNW 13 17 7 9 1023.8 1023.8 0.0
26/09:00am 6.7 3.8 6.6 99 0.0 NW 11 15 6 8 1023.4 1023.4 0.6
26/08:30am 5.4 2.2 5.3 99 0.0 NW 11 13 6 7 1022.8 1022.8 0.6
26/08:00am 4.0 0.2 3.9 99 0.0 NW 13 15 7 8 1022.4 1022.4 0.6
26/07:30am 4.2 0.4 4.1 99 0.0 NW 13 15 7 8 1022.1 1022.1 0.6
26/07:00am 4.1 1.1 4.0 99 0.0 WNW 9 9 5 5 1021.8 1021.8 0.6
26/06:30am 4.0 1.0 3.9 99 0.0 NW 9 11 5 6 1021.5 1021.5 0.6
26/06:00am 4.7 1.4 4.6 99 0.0 NW 11 11 6 6 1021.0 1021.0 0.6
26/05:30am 5.3 2.5 5.2 99 0.0 NW 9 9 5 5 1020.7 1020.7 0.6
26/05:00am 5.5 2.0 5.4 99 0.0 NW 13 15 7 8 1020.6 1020.6 0.6
26/04:30am 5.7 2.6 5.6 99 0.0 NW 11 15 6 8 1020.3 1020.3 0.6
26/04:00am 6.9 4.4 6.6 98 0.1 NW 9 11 5 6 1020.0 1020.0 0.6
26/03:30am 7.5 4.3 6.9 96 0.3 WNW 13 15 7 8 1019.9 1019.9 0.6
26/03:00am 8.0 4.8 6.9 93 0.5 NW 13 17 7 9 1019.9 1019.9 0.6
26/02:30am 8.7 5.7 7.9 95 0.4 NW 13 15 7 8 1019.8 1019.8 0.6
26/02:00am 8.5 6.0 8.1 97 0.2 NW 11 13 6 7 1019.5 1019.5 0.6
26/01:30am 8.2 6.0 7.8 97 0.2 NW 9 9 5 5 1019.3 1019.3 0.6
26/01:00am 8.3 5.7 7.7 96 0.3 NNW 11 13 6 7 1019.0 1019.0 0.6
26/12:30am 8.8 6.3 8.2 96 0.3 NW 11 15 6 8 1019.0 1019.0 0.6
26/12:00am 8.9 6.9 8.5 97 0.2 NW 9 13 5 7 1019.0 1019.0 0.6
 
Date/Time
EST
Temp
°C
App
Temp
°C
Dew
Point
°C
Rel
Hum
%
Delta-T
°C
Wind Press
QNH
hPa
Press
MSL
hPa
Rain since
9am
mm
Dir  Spd
km/h
Gust
km/h
Spd
kts
Gust
kts
25/11:30pm 8.9 6.4 8.3 96 0.3 NW 11 13 6 7 1018.8 1018.8 0.6
25/11:00pm 9.4 6.6 8.5 94 0.4 NW 13 17 7 9 1018.8 1018.8 0.6
25/10:30pm 9.8 6.4 9.0 95 0.4 WNW 17 22 9 12 1018.7 1018.7 0.6
25/10:00pm 9.5 6.4 8.9 96 0.3 WNW 15 20 8 11 1018.7 1018.7 0.6
25/09:30pm 9.0 5.7 8.2 95 0.4 NW 15 19 8 10 1018.3 1018.3 0.6
25/09:00pm 9.9 6.7 8.5 91 0.7 WNW 15 24 8 13 1018.2 1018.2 0.6
25/08:56pm 10.1 7.0 8.7 91 0.7 W 15 22 8 12 1018.1 1018.1 0.6
25/08:38pm 10.5 6.7 7.7 83 1.3 W 17 24 9 13 1018.2 1018.2 0.4
25/08:30pm 10.9 7.8 7.4 79 1.7 W 13 19 7 10 1018.0 1018.0 0.2
25/08:00pm 11.4 6.8 6.7 73 2.2 W 20 28 11 15 1017.6 1017.6 0.2
25/07:30pm 11.7 7.2 6.0 68 2.7 WNW 19 26 10 14 1017.0 1017.0 0.2
25/07:00pm 11.1 7.4 6.5 73 2.2 NW 15 19 8 10 1016.5 1016.5 0.2

Latest Capital City Observations: Canberra | Sydney | Melbourne | Brisbane | Adelaide | Perth | Hobart | Darwin

Other Formats:

Comma delimited format used in spreadsheet applications
http://www.bom.gov.au/fwo/IDV60901/IDV60901.94865.axf

JavaScript Object Notation format (JSON) in row-major order
http://www.bom.gov.au/fwo/IDV60901/IDV60901.94865.json